createdAt,value
2019-05-06T00:01:54.015Z,97.70
2019-05-06T00:04:24.726Z,98.40
2019-05-06T00:06:54.869Z,97.60
2019-05-06T00:09:24.113Z,98.00
2019-05-06T00:11:54.291Z,97.80
2019-05-06T00:14:23.681Z,98.20
2019-05-06T00:16:54.575Z,98.30
2019-05-06T00:19:24.701Z,97.90
2019-05-06T00:21:54.040Z,98.40
2019-05-06T00:24:24.671Z,98.50
2019-05-06T00:27:00.354Z,98.90
2019-05-06T00:29:30.740Z,97.40
2019-05-06T00:31:59.302Z,97.60
2019-05-06T00:34:27.875Z,97.80
2019-05-06T00:36:56.435Z,98.10
2019-05-06T00:39:44.480Z,98.20
2019-05-06T00:42:28.622Z,98.20
2019-05-06T00:44:57.228Z,97.70
2019-05-06T00:47:26.086Z,97.60
2019-05-06T00:49:54.783Z,98.20
2019-05-06T00:52:25.850Z,98.20
2019-05-06T00:54:54.649Z,98.10
2019-05-06T00:57:44.101Z,98.20
2019-05-06T01:00:14.899Z,97.60
2019-05-06T01:02:43.914Z,98.40
2019-05-06T01:05:13.893Z,98.40
2019-05-06T01:07:44.002Z,99.00
2019-05-06T01:10:14.319Z,98.50
2019-05-06T01:12:47.006Z,98.00
2019-05-06T01:15:17.983Z,98.70
2019-05-06T01:17:46.551Z,98.80
2019-05-06T01:20:15.106Z,98.80
2019-05-06T01:22:43.922Z,98.70
2019-05-06T01:25:14.222Z,99.20
2019-05-06T01:27:44.451Z,99.00
2019-05-06T01:30:14.897Z,99.00
2019-05-06T01:32:43.807Z,97.70
2019-05-06T01:35:14.095Z,98.10
2019-05-06T01:37:44.667Z,99.00
2019-05-06T01:40:20.886Z,98.50
2019-05-06T01:43:08.871Z,98.20
2019-05-06T01:45:37.454Z,98.80
2019-05-06T01:48:06.018Z,98.90
2019-05-06T01:50:34.610Z,99.90
2019-05-06T01:53:04.977Z,98.70
2019-05-06T01:55:34.332Z,98.50
2019-05-06T01:58:04.972Z,98.40
2019-05-06T02:00:34.423Z,99.30
2019-05-06T02:03:04.082Z,99.30
2019-05-06T02:05:33.667Z,99.40
2019-05-06T02:08:03.972Z,99.40
2019-05-06T02:10:34.525Z,99.00
2019-05-06T02:13:03.908Z,99.20
2019-05-06T02:15:34.644Z,99.40
2019-05-06T02:18:04.141Z,99.20
2019-05-06T02:20:34.335Z,99.10
2019-05-06T02:23:10.664Z,99.20
2019-05-06T02:25:44.674Z,98.80
2019-05-06T02:28:14.313Z,99.30
2019-05-06T02:30:50.728Z,99.50
2019-05-06T02:33:26.543Z,99.10
2019-05-06T02:36:14.931Z,99.40
2019-05-06T02:38:49.557Z,99.10
2019-05-06T02:41:14.653Z,99.40
2019-05-06T02:43:43.604Z,99.50
2019-05-06T02:46:13.002Z,99.20
2019-05-06T02:48:54.606Z,99.20
2019-05-06T02:51:26.595Z,99.40
2019-05-06T02:53:55.160Z,99.70
2019-05-06T02:56:24.124Z,99.40
2019-05-06T02:58:53.685Z,99.10
2019-05-06T03:01:23.331Z,98.80
2019-05-06T03:03:53.653Z,99.10
2019-05-06T03:06:23.781Z,98.00
2019-05-06T03:08:54.081Z,99.10
2019-05-06T03:11:24.051Z,98.60
2019-05-06T03:13:53.871Z,98.10
2019-05-06T03:16:23.730Z,98.40
2019-05-06T03:18:53.408Z,97.50
2019-05-06T03:21:40.108Z,98.70
2019-05-06T03:24:43.391Z,98.50
2019-05-06T03:27:14.092Z,98.50
2019-05-06T03:29:44.402Z,98.80
2019-05-06T03:32:16.457Z,98.50
2019-05-06T03:35:01.290Z,97.80
2019-05-06T03:37:16.890Z,98.60
2019-05-06T03:39:43.500Z,98.80
2019-05-06T03:42:16.035Z,98.40
2019-05-06T03:44:44.628Z,98.80
2019-05-06T03:47:47.650Z,98.70
2019-05-06T03:50:16.401Z,98.40
2019-05-06T03:52:44.963Z,98.40
2019-05-06T03:55:14.044Z,98.90
2019-05-06T03:57:43.081Z,98.60
2019-05-06T04:00:15.975Z,98.90
2019-05-06T04:02:43.863Z,99.20
2019-05-06T04:05:13.400Z,99.30
2019-05-06T04:07:45.440Z,99.50
2019-05-06T04:10:13.582Z,99.80
2019-05-06T04:12:43.455Z,99.40
2019-05-06T04:15:14.087Z,99.40
2019-05-06T04:17:47.683Z,98.20
2019-05-06T04:20:23.737Z,98.70
2019-05-06T04:23:17.891Z,98.40
2019-05-06T04:25:55.214Z,99.20
2019-05-06T04:28:26.724Z,97.90
2019-05-06T04:30:55.349Z,98.80
2019-05-06T04:33:23.978Z,97.90
2019-05-06T04:35:54.070Z,98.70
2019-05-06T04:38:23.738Z,99.10
2019-05-06T04:40:53.820Z,98.50
2019-05-06T04:43:26.813Z,98.30
2019-05-06T04:45:54.268Z,98.10
2019-05-06T04:48:23.802Z,98.70
2019-05-06T04:50:53.647Z,97.90
2019-05-06T04:53:26.511Z,98.10
2019-05-06T04:55:53.902Z,97.40
2019-05-06T04:58:23.455Z,98.10
2019-05-06T05:00:53.065Z,97.90
2019-05-06T05:03:22.911Z,98.70
2019-05-06T05:05:53.115Z,97.70
2019-05-06T05:08:25.237Z,97.80
2019-05-06T05:11:05.607Z,98.10
2019-05-06T05:13:53.162Z,97.50
2019-05-06T05:16:37.747Z,96.90
2019-05-06T05:19:08.595Z,97.00
2019-05-06T05:21:37.166Z,97.70
2019-05-06T05:24:05.743Z,96.60
2019-05-06T05:26:34.598Z,97.70
2019-05-06T05:29:03.166Z,96.80
2019-05-06T05:31:33.157Z,96.50
2019-05-06T05:34:02.299Z,96.60
2019-05-06T05:36:32.767Z,97.80
2019-05-06T05:39:03.389Z,97.20
2019-05-06T05:41:33.180Z,96.30
2019-05-06T05:44:12.002Z,95.60
2019-05-06T05:46:40.943Z,97.10
2019-05-06T05:49:26.474Z,96.30
2019-05-06T05:51:55.034Z,95.80
2019-05-06T05:54:23.835Z,95.90
2019-05-06T05:56:52.998Z,95.80
2019-05-06T05:59:23.250Z,96.70
2019-05-06T06:01:53.061Z,96.50
2019-05-06T06:04:22.492Z,96.00
2019-05-06T06:06:52.027Z,94.30
2019-05-06T06:09:22.403Z,94.80
2019-05-06T06:11:53.341Z,93.90
2019-05-06T06:14:56.032Z,93.80
2019-05-06T06:17:33.971Z,93.60
2019-05-06T06:20:07.382Z,94.30
2019-05-06T06:22:35.946Z,93.50
2019-05-06T06:25:04.811Z,93.40
2019-05-06T06:27:48.327Z,92.90
2019-05-06T06:30:16.992Z,93.00
2019-05-06T06:32:45.551Z,91.70
2019-05-06T06:35:20.028Z,92.80
2019-05-06T06:37:54.421Z,93.20
2019-05-06T06:40:25.234Z,92.70
2019-05-06T06:42:58.614Z,92.00
2019-05-06T06:45:27.176Z,93.20
2019-05-06T06:47:55.851Z,92.10
2019-05-06T06:50:24.387Z,91.60
2019-05-06T06:52:52.970Z,91.00
2019-05-06T06:55:22.532Z,93.30
2019-05-06T06:58:04.686Z,91.50
2019-05-06T07:00:46.906Z,92.20
2019-05-06T07:03:21.834Z,91.90
2019-05-06T07:06:13.271Z,92.10
2019-05-06T07:08:42.636Z,91.80
2019-05-06T07:11:13.028Z,90.60
2019-05-06T07:13:50.223Z,90.30
2019-05-06T07:16:20.707Z,89.90
2019-05-06T07:18:49.075Z,88.30
2019-05-06T07:21:34.014Z,91.20
2019-05-06T07:24:02.601Z,90.50
2019-05-06T07:26:37.003Z,89.70
2019-05-06T07:29:15.254Z,87.20
2019-05-06T07:31:35.887Z,86.70
2019-05-06T07:34:04.458Z,88.20
2019-05-06T07:36:33.010Z,90.20
2019-05-06T07:39:04.085Z,86.50
2019-05-06T07:41:43.597Z,85.10
2019-05-06T07:44:33.335Z,85.90
2019-05-06T07:47:15.764Z,90.60
2019-05-06T07:49:44.516Z,90.00
2019-05-06T07:52:13.102Z,89.70
2019-05-06T07:54:42.523Z,90.10
2019-05-06T07:57:12.680Z,83.00
2019-05-06T07:59:42.883Z,84.70
2019-05-06T08:02:13.093Z,82.90
2019-05-06T08:04:42.235Z,83.30
2019-05-06T08:07:12.625Z,77.40
2019-05-06T08:09:42.257Z,70.40
2019-05-06T08:12:12.369Z,69.90
2019-05-06T08:14:42.946Z,70.20
2019-05-06T08:17:22.253Z,69.10
2019-05-06T08:19:52.893Z,64.00
2019-05-06T08:22:26.199Z,62.60
2019-05-06T08:24:54.799Z,59.00
2019-05-06T08:27:23.694Z,59.60
2019-05-06T08:29:52.611Z,55.90
2019-05-06T08:32:22.761Z,59.40
2019-05-06T08:34:52.405Z,58.70
2019-05-06T08:37:32.268Z,56.80
2019-05-06T08:40:03.131Z,54.30
2019-05-06T08:42:32.918Z,55.00
2019-05-06T08:45:02.374Z,51.50
2019-05-06T08:47:32.861Z,51.50
2019-05-06T08:50:15.469Z,50.60
2019-05-06T08:53:06.175Z,51.60
2019-05-06T08:55:37.359Z,50.80
2019-05-06T08:58:05.935Z,49.30
2019-05-06T09:00:38.256Z,49.60
2019-05-06T09:03:07.163Z,51.40
2019-05-06T09:05:35.698Z,55.20
2019-05-06T09:08:04.291Z,53.20
2019-05-06T09:10:32.906Z,56.30
2019-05-06T09:13:01.960Z,57.10
2019-05-06T09:15:32.539Z,56.50
2019-05-06T09:18:02.948Z,60.10
2019-05-06T09:20:32.588Z,56.60
2019-05-06T09:23:04.517Z,57.70
2019-05-06T09:25:32.330Z,56.80
2019-05-06T09:28:13.173Z,57.90
2019-05-06T09:30:59.343Z,58.20
2019-05-06T09:33:33.940Z,60.00
2019-05-06T09:36:03.317Z,59.80
2019-05-06T09:38:32.252Z,60.60
2019-05-06T09:41:04.796Z,57.50
2019-05-06T09:43:32.800Z,59.30
2019-05-06T09:46:02.402Z,59.60
2019-05-06T09:48:52.596Z,57.50
2019-05-06T09:51:22.101Z,58.80
2019-05-06T09:54:15.469Z,64.50
2019-05-06T09:56:48.591Z,55.80
2019-05-06T09:59:17.187Z,54.50
2019-05-06T10:01:45.768Z,56.80
2019-05-06T10:04:14.370Z,54.20
2019-05-06T10:06:55.802Z,54.50
2019-05-06T10:09:15.699Z,58.20
2019-05-06T10:11:43.574Z,56.80
2019-05-06T10:14:12.944Z,59.00
2019-05-06T10:16:42.985Z,59.50
2019-05-06T10:19:13.211Z,59.40
2019-05-06T10:21:42.754Z,60.60
2019-05-06T10:24:11.616Z,60.30
2019-05-06T10:26:47.905Z,59.10
2019-05-06T10:29:24.626Z,61.50
2019-05-06T10:32:17.605Z,59.60
2019-05-06T10:34:46.182Z,63.80
2019-05-06T10:37:30.058Z,63.10
2019-05-06T10:40:18.988Z,62.40
2019-05-06T10:42:52.311Z,64.40
2019-05-06T10:45:27.682Z,63.10
2019-05-06T10:47:56.619Z,64.50
2019-05-06T10:50:25.795Z,66.00
2019-05-06T10:53:16.699Z,65.30
2019-05-06T10:55:49.529Z,62.10
2019-05-06T10:58:18.104Z,66.40
2019-05-06T11:00:48.200Z,65.10
2019-05-06T11:03:22.670Z,63.50
2019-05-06T11:05:53.475Z,66.70
2019-05-06T11:08:22.199Z,60.70
2019-05-06T11:10:53.196Z,59.90
2019-05-06T11:13:21.177Z,57.30
2019-05-06T11:15:52.811Z,62.00
2019-05-06T11:18:23.202Z,57.60
2019-05-06T11:20:52.982Z,57.10
2019-05-06T11:23:21.932Z,58.60
2019-05-06T11:25:52.635Z,57.20
2019-05-06T11:28:55.239Z,59.60
2019-05-06T11:31:33.239Z,55.30
2019-05-06T11:34:22.094Z,55.70
2019-05-06T11:36:52.859Z,61.60
2019-05-06T11:39:23.377Z,61.00
2019-05-06T11:42:06.457Z,59.70
2019-05-06T11:44:23.865Z,59.40
2019-05-06T11:46:52.430Z,60.50
2019-05-06T11:49:23.094Z,58.60
2019-05-06T11:51:51.325Z,61.70
2019-05-06T11:54:23.590Z,57.60
2019-05-06T11:56:52.677Z,58.20
2019-05-06T11:59:22.595Z,64.30
2019-05-06T12:01:54.602Z,60.10
2019-05-06T12:04:23.448Z,60.70
2019-05-06T12:07:02.209Z,60.00
2019-05-06T12:09:22.806Z,60.40
2019-05-06T12:11:52.843Z,63.80
2019-05-06T12:14:22.638Z,66.00
2019-05-06T12:16:54.865Z,66.40
2019-05-06T12:19:22.520Z,66.10
2019-05-06T12:21:51.748Z,66.30
2019-05-06T12:24:20.324Z,69.20
2019-05-06T12:26:48.902Z,68.90
2019-05-06T12:29:17.544Z,66.70
2019-05-06T12:31:50.086Z,69.10
2019-05-06T12:34:18.703Z,66.90
2019-05-06T12:36:48.938Z,66.90
2019-05-06T12:39:43.247Z,72.50
2019-05-06T12:42:23.250Z,76.00
2019-05-06T12:45:17.679Z,76.40
2019-05-06T12:47:53.433Z,78.30
2019-05-06T12:50:22.683Z,79.10
2019-05-06T12:52:52.625Z,79.00
2019-05-06T12:55:25.126Z,77.80
2019-05-06T12:57:53.148Z,76.40
2019-05-06T13:00:23.526Z,74.70
2019-05-06T13:02:53.083Z,76.30
2019-05-06T13:05:21.941Z,75.50
2019-05-06T13:07:52.572Z,76.80
2019-05-06T13:10:23.137Z,75.60
2019-05-06T13:12:56.815Z,75.20
2019-05-06T13:15:25.471Z,78.00
2019-05-06T13:17:54.037Z,76.20
2019-05-06T13:20:23.051Z,73.80
2019-05-06T13:23:12.128Z,71.60
2019-05-06T13:25:37.495Z,73.20
2019-05-06T13:28:08.777Z,74.10
2019-05-06T13:30:37.440Z,73.70
2019-05-06T13:33:13.631Z,73.70
2019-05-06T13:35:42.546Z,74.10
2019-05-06T13:38:11.105Z,73.90
2019-05-06T13:40:53.888Z,69.10
2019-05-06T13:43:44.504Z,73.20
2019-05-06T13:46:33.178Z,72.50
2019-05-06T13:49:22.529Z,68.60
2019-05-06T13:51:56.166Z,68.10
2019-05-06T13:54:24.758Z,72.50
2019-05-06T13:56:53.327Z,72.50
2019-05-06T13:59:21.940Z,71.20
2019-05-06T14:02:16.984Z,73.10
2019-05-06T14:04:45.631Z,69.30
2019-05-06T14:07:14.470Z,69.80
2019-05-06T14:09:43.885Z,68.50
2019-05-06T14:12:17.389Z,62.80
2019-05-06T14:14:47.801Z,65.20
2019-05-06T14:17:16.423Z,62.90
2019-05-06T14:19:44.992Z,63.90
2019-05-06T14:22:13.573Z,63.30
2019-05-06T14:24:47.046Z,59.90
2019-05-06T14:27:18.246Z,61.10
2019-05-06T14:29:53.867Z,61.00
2019-05-06T14:32:23.671Z,63.90
2019-05-06T14:34:52.483Z,65.90
2019-05-06T14:37:22.649Z,67.90
2019-05-06T14:39:58.882Z,66.80
2019-05-06T14:42:23.338Z,66.80
2019-05-06T14:44:52.528Z,63.20
2019-05-06T14:47:24.227Z,65.00
2019-05-06T14:49:53.244Z,63.00
2019-05-06T14:52:22.586Z,65.40
2019-05-06T14:55:09.137Z,65.70
2019-05-06T14:57:37.706Z,68.50
2019-05-06T15:00:08.066Z,65.30
2019-05-06T15:02:36.671Z,67.80
2019-05-06T15:05:05.683Z,66.10
2019-05-06T15:07:34.245Z,68.90
2019-05-06T15:10:19.179Z,69.80
2019-05-06T15:12:33.434Z,71.90
2019-05-06T15:15:03.814Z,74.10
2019-05-06T15:17:33.167Z,76.90
2019-05-06T15:20:02.993Z,78.90
2019-05-06T15:22:31.518Z,82.80
2019-05-06T15:25:02.223Z,84.40
2019-05-06T15:27:30.462Z,85.10
2019-05-06T15:30:03.355Z,87.10
2019-05-06T15:32:35.146Z,85.20
2019-05-06T15:35:35.982Z,87.00
2019-05-06T15:38:12.802Z,86.60
2019-05-06T15:40:43.908Z,86.70
2019-05-06T15:43:12.730Z,85.10
2019-05-06T15:45:42.944Z,84.10
2019-05-06T15:48:12.860Z,82.00
2019-05-06T15:50:45.320Z,81.70
2019-05-06T15:53:12.569Z,82.70
2019-05-06T15:55:43.508Z,81.10
2019-05-06T15:58:12.514Z,82.60
2019-05-06T16:00:42.464Z,79.70
2019-05-06T16:03:12.930Z,75.60
2019-05-06T16:05:43.698Z,76.50
2019-05-06T16:08:11.763Z,78.80
2019-05-06T16:10:52.028Z,75.70
2019-05-06T16:13:12.773Z,74.40
2019-05-06T16:15:42.331Z,74.10
2019-05-06T16:18:12.918Z,76.90
2019-05-06T16:20:41.325Z,76.20
2019-05-06T16:23:25.375Z,74.60
2019-05-06T16:25:53.926Z,73.40
2019-05-06T16:28:22.698Z,75.70
2019-05-06T16:30:53.464Z,73.60
2019-05-06T16:33:22.213Z,76.30
2019-05-06T16:35:52.211Z,75.80
2019-05-06T16:38:23.055Z,77.00
2019-05-06T16:40:57.714Z,76.00
2019-05-06T16:43:22.251Z,75.80
2019-05-06T16:45:53.220Z,75.80
2019-05-06T16:48:22.529Z,74.70
2019-05-06T16:50:51.294Z,75.80
2019-05-06T16:53:19.890Z,75.80
2019-05-06T16:56:02.990Z,77.30
2019-05-06T16:58:34.325Z,77.30
2019-05-06T17:01:03.352Z,79.20
2019-05-06T17:04:08.165Z,77.10
2019-05-06T17:06:38.474Z,79.20
2019-05-06T17:09:18.368Z,79.30
2019-05-06T17:11:39.154Z,79.70
2019-05-06T17:14:07.716Z,79.90
2019-05-06T17:16:36.310Z,78.50
2019-05-06T17:19:04.910Z,81.60
2019-05-06T17:21:33.582Z,81.70
2019-05-06T17:24:02.418Z,79.40
2019-05-06T17:26:31.370Z,80.40
2019-05-06T17:29:19.031Z,80.00
2019-05-06T17:31:59.770Z,80.00
2019-05-06T17:34:31.799Z,80.70
2019-05-06T17:37:06.225Z,83.60
2019-05-06T17:39:34.886Z,83.90
2019-05-06T17:42:03.541Z,81.50
2019-05-06T17:44:32.714Z,83.50
2019-05-06T17:47:12.206Z,83.30
2019-05-06T17:49:42.236Z,84.50
2019-05-06T17:52:19.455Z,85.80
2019-05-06T17:54:47.999Z,87.20
2019-05-06T17:57:16.844Z,85.20
2019-05-06T17:59:45.630Z,86.70
2019-05-06T18:02:19.071Z,85.40
2019-05-06T18:04:47.123Z,87.70
2019-05-06T18:07:15.800Z,88.20
2019-05-06T18:09:44.514Z,88.50
2019-05-06T18:12:13.144Z,88.00
2019-05-06T18:14:43.538Z,86.60
2019-05-06T18:17:12.648Z,87.80
2019-05-06T18:19:41.385Z,87.50
2019-05-06T18:22:10.356Z,88.60
2019-05-06T18:24:39.024Z,89.00
2019-05-06T18:27:07.622Z,89.20
2019-05-06T18:29:37.590Z,87.10
2019-05-06T18:32:06.533Z,89.40
2019-05-06T18:34:35.123Z,88.60
2019-05-06T18:37:04.370Z,90.10
2019-05-06T18:39:34.216Z,88.70
2019-05-06T18:42:15.737Z,89.80
2019-05-06T18:44:33.460Z,89.20
2019-05-06T18:47:02.872Z,89.60
2019-05-06T18:49:33.718Z,89.80
2019-05-06T18:52:02.178Z,90.10
2019-05-06T18:54:33.185Z,90.20
2019-05-06T18:57:04.326Z,90.00
2019-05-06T18:59:32.937Z,90.10
2019-05-06T19:02:02.245Z,90.10
2019-05-06T19:04:37.047Z,90.60
2019-05-06T19:07:12.874Z,90.10
2019-05-06T19:09:52.353Z,91.30
2019-05-06T19:12:30.126Z,90.70
2019-05-06T19:14:52.561Z,90.30
2019-05-06T19:17:22.554Z,90.20
2019-05-06T19:19:52.053Z,90.50
2019-05-06T19:22:22.848Z,90.60
2019-05-06T19:24:52.160Z,90.60
2019-05-06T19:27:24.631Z,91.20
2019-05-06T19:29:54.292Z,90.90
2019-05-06T19:32:22.568Z,90.90
2019-05-06T19:34:52.975Z,91.80
2019-05-06T19:37:23.351Z,92.90
2019-05-06T19:39:52.623Z,91.30
2019-05-06T19:42:22.404Z,91.00
2019-05-06T19:44:52.909Z,91.40
2019-05-06T19:47:21.770Z,91.20
2019-05-06T19:49:50.347Z,91.60
2019-05-06T19:52:19.006Z,91.00
2019-05-06T19:54:47.656Z,91.80
2019-05-06T19:57:16.249Z,92.00
2019-05-06T19:59:44.918Z,92.70
2019-05-06T20:02:13.562Z,91.60
2019-05-06T20:04:44.460Z,92.50
2019-05-06T20:07:22.813Z,92.10
2019-05-06T20:10:23.078Z,93.50
2019-05-06T20:13:01.712Z,92.30
2019-05-06T20:15:35.942Z,93.10
2019-05-06T20:18:05.600Z,92.50
2019-05-06T20:20:35.033Z,92.50
2019-05-06T20:23:04.195Z,92.80
2019-05-06T20:25:32.799Z,93.30
2019-05-06T20:28:02.389Z,93.00
2019-05-06T20:30:32.646Z,92.90
2019-05-06T20:33:01.395Z,93.10
2019-05-06T20:35:32.185Z,93.10
2019-05-06T20:38:02.577Z,94.00
2019-05-06T20:40:32.743Z,93.20
2019-05-06T20:43:14.224Z,93.80
2019-05-06T20:45:35.061Z,93.10
2019-05-06T20:48:03.194Z,94.40
2019-05-06T20:50:32.271Z,94.10
2019-05-06T20:53:01.022Z,94.10
2019-05-06T20:55:34.781Z,94.00
2019-05-06T20:58:02.552Z,94.10
2019-05-06T21:00:33.273Z,94.50
2019-05-06T21:03:00.900Z,94.90
2019-05-06T21:05:29.463Z,94.10
2019-05-06T21:07:58.326Z,94.40
2019-05-06T21:10:26.886Z,94.60
2019-05-06T21:12:55.482Z,95.20
2019-05-06T21:15:24.047Z,94.30
2019-05-06T21:17:52.612Z,94.20
2019-05-06T21:20:21.196Z,94.20
2019-05-06T21:22:49.760Z,94.40
2019-05-06T21:25:18.319Z,94.40
2019-05-06T21:27:47.233Z,94.30
2019-05-06T21:30:16.568Z,94.80
2019-05-06T21:32:45.123Z,93.70
2019-05-06T21:35:13.699Z,93.50
2019-05-06T21:37:42.443Z,94.30
2019-05-06T21:40:12.283Z,94.30
2019-05-06T21:42:43.123Z,94.70
2019-05-06T21:45:12.566Z,94.50
2019-05-06T21:47:44.411Z,95.20
2019-05-06T21:50:12.197Z,95.00
2019-05-06T21:52:42.873Z,94.80
2019-05-06T21:55:13.212Z,94.00
2019-05-06T21:57:42.272Z,94.00
2019-05-06T22:00:14.984Z,94.90
